sensor_id;sensor_type;location;lat;lon;timestamp;P1;durP1;ratioP1;P2;durP2;ratioP2
74872;SDS011;68776;44.762;37.698;2023-03-29T00:00:01;13.95;;;4.50;;
74872;SDS011;68776;44.762;37.698;2023-03-29T00:01:12;9.43;;;3.80;;
74872;SDS011;68776;44.762;37.698;2023-03-29T00:02:13;9.27;;;3.73;;
74872;SDS011;68776;44.762;37.698;2023-03-29T00:03:14;8.15;;;3.95;;
74872;SDS011;68776;44.762;37.698;2023-03-29T00:04:15;8.38;;;3.45;;
74872;SDS011;68776;44.762;37.698;2023-03-29T00:05:19;6.88;;;2.75;;
74872;SDS011;68776;44.762;37.698;2023-03-29T00:06:24;8.68;;;3.63;;
74872;SDS011;68776;44.762;37.698;2023-03-29T00:07:30;10.02;;;4.15;;
74872;SDS011;68776;44.762;37.698;2023-03-29T00:08:34;11.73;;;3.67;;
74872;SDS011;68776;44.762;37.698;2023-03-29T00:09:37;9.13;;;3.03;;
74872;SDS011;68776;44.762;37.698;2023-03-29T00:10:38;10.48;;;3.80;;
74872;SDS011;68776;44.762;37.698;2023-03-29T00:11:39;9.32;;;3.17;;
74872;SDS011;68776;44.762;37.698;2023-03-29T00:12:41;8.30;;;3.08;;
74872;SDS011;68776;44.762;37.698;2023-03-29T00:13:42;9.07;;;3.20;;
74872;SDS011;68776;44.762;37.698;2023-03-29T00:14:43;10.45;;;3.80;;
74872;SDS011;68776;44.762;37.698;2023-03-29T00:15:45;8.52;;;3.58;;
74872;SDS011;68776;44.762;37.698;2023-03-29T00:16:46;7.97;;;3.40;;
74872;SDS011;68776;44.762;37.698;2023-03-29T00:17:48;10.95;;;3.67;;
74872;SDS011;68776;44.762;37.698;2023-03-29T00:18:49;8.45;;;3.30;;
74872;SDS011;68776;44.762;37.698;2023-03-29T00:19:50;8.40;;;3.35;;
74872;SDS011;68776;44.762;37.698;2023-03-29T00:20:55;9.70;;;3.78;;
74872;SDS011;68776;44.762;37.698;2023-03-29T00:21:56;9.75;;;3.42;;
74872;SDS011;68776;44.762;37.698;2023-03-29T00:22:57;7.82;;;3.28;;
74872;SDS011;68776;44.762;37.698;2023-03-29T00:23:59;9.40;;;3.22;;
74872;SDS011;68776;44.762;37.698;2023-03-29T00:25:00;9.20;;;3.70;;
74872;SDS011;68776;44.762;37.698;2023-03-29T00:26:01;7.63;;;3.13;;
74872;SDS011;68776;44.762;37.698;2023-03-29T00:27:02;9.18;;;2.90;;
74872;SDS011;68776;44.762;37.698;2023-03-29T00:28:03;8.52;;;2.92;;
74872;SDS011;68776;44.762;37.698;2023-03-29T00:29:04;8.70;;;3.08;;
74872;SDS011;68776;44.762;37.698;2023-03-29T00:30:06;7.68;;;2.78;;
74872;SDS011;68776;44.762;37.698;2023-03-29T00:31:09;8.00;;;3.03;;
74872;SDS011;68776;44.762;37.698;2023-03-29T00:32:11;9.27;;;2.88;;
74872;SDS011;68776;44.762;37.698;2023-03-29T00:33:13;7.35;;;2.88;;
74872;SDS011;68776;44.762;37.698;2023-03-29T00:34:16;8.57;;;3.35;;
74872;SDS011;68776;44.762;37.698;2023-03-29T00:35:17;9.00;;;3.15;;
74872;SDS011;68776;44.762;37.698;2023-03-29T00:36:19;10.52;;;3.33;;
74872;SDS011;68776;44.762;37.698;2023-03-29T00:37:22;9.77;;;3.80;;
74872;SDS011;68776;44.762;37.698;2023-03-29T00:38:26;8.55;;;3.40;;
74872;SDS011;68776;44.762;37.698;2023-03-29T00:39:27;8.68;;;3.40;;
74872;SDS011;68776;44.762;37.698;2023-03-29T00:40:30;10.98;;;3.70;;
74872;SDS011;68776;44.762;37.698;2023-03-29T00:41:32;6.68;;;2.47;;
74872;SDS011;68776;44.762;37.698;2023-03-29T00:42:33;8.45;;;2.88;;
74872;SDS011;68776;44.762;37.698;2023-03-29T00:43:50;7.90;;;3.03;;
74872;SDS011;68776;44.762;37.698;2023-03-29T00:46:00;8.55;;;3.00;;
74872;SDS011;68776;44.762;37.698;2023-03-29T00:47:00;9.15;;;2.90;;
74872;SDS011;68776;44.762;37.698;2023-03-29T00:48:03;7.75;;;2.90;;
74872;SDS011;68776;44.762;37.698;2023-03-29T00:49:12;8.60;;;3.10;;
74872;SDS011;68776;44.762;37.698;2023-03-29T00:50:22;8.52;;;2.70;;
74872;SDS011;68776;44.762;37.698;2023-03-29T00:51:29;10.05;;;2.83;;
74872;SDS011;68776;44.762;37.698;2023-03-29T00:52:33;9.60;;;2.80;;
74872;SDS011;68776;44.762;37.698;2023-03-29T00:53:37;9.20;;;2.95;;
74872;SDS011;68776;44.762;37.698;2023-03-29T00:54:42;7.90;;;3.05;;
74872;SDS011;68776;44.762;37.698;2023-03-29T00:55:52;7.77;;;2.50;;
74872;SDS011;68776;44.762;37.698;2023-03-29T00:56:57;9.50;;;2.80;;
74872;SDS011;68776;44.762;37.698;2023-03-29T00:58:04;7.97;;;2.60;;
74872;SDS011;68776;44.762;37.698;2023-03-29T01:00:12;6.40;;;2.05;;
74872;SDS011;68776;44.762;37.698;2023-03-29T01:01:22;6.90;;;2.53;;
74872;SDS011;68776;44.762;37.698;2023-03-29T01:02:28;5.70;;;1.95;;
74872;SDS011;68776;44.762;37.698;2023-03-29T01:03:35;7.32;;;1.90;;
74872;SDS011;68776;44.762;37.698;2023-03-29T01:04:46;6.93;;;1.80;;
74872;SDS011;68776;44.762;37.698;2023-03-29T01:06:07;6.05;;;2.00;;
74872;SDS011;68776;44.762;37.698;2023-03-29T01:07:14;6.95;;;1.80;;
74872;SDS011;68776;44.762;37.698;2023-03-29T01:08:26;7.00;;;1.60;;
74872;SDS011;68776;44.762;37.698;2023-03-29T01:09:34;6.35;;;1.77;;
74872;SDS011;68776;44.762;37.698;2023-03-29T01:10:39;7.95;;;1.88;;
74872;SDS011;68776;44.762;37.698;2023-03-29T01:11:45;6.13;;;1.90;;
74872;SDS011;68776;44.762;37.698;2023-03-29T01:12:52;7.10;;;1.75;;
74872;SDS011;68776;44.762;37.698;2023-03-29T01:14:03;8.10;;;1.70;;
74872;SDS011;68776;44.762;37.698;2023-03-29T01:15:13;5.85;;;1.98;;
74872;SDS011;68776;44.762;37.698;2023-03-29T01:16:18;7.13;;;1.70;;
74872;SDS011;68776;44.762;37.698;2023-03-29T01:17:21;6.95;;;1.95;;
74872;SDS011;68776;44.762;37.698;2023-03-29T01:18:24;5.85;;;1.58;;
74872;SDS011;68776;44.762;37.698;2023-03-29T01:19:26;6.57;;;1.58;;
74872;SDS011;68776;44.762;37.698;2023-03-29T01:24:57;6.30;;;1.40;;
74872;SDS011;68776;44.762;37.698;2023-03-29T01:28:39;6.55;;;1.63;;
74872;SDS011;68776;44.762;37.698;2023-03-29T01:29:50;6.45;;;1.50;;
74872;SDS011;68776;44.762;37.698;2023-03-29T01:31:02;6.23;;;1.60;;
74872;SDS011;68776;44.762;37.698;2023-03-29T01:32:21;5.60;;;1.42;;
74872;SDS011;68776;44.762;37.698;2023-03-29T01:33:25;7.80;;;1.77;;
74872;SDS011;68776;44.762;37.698;2023-03-29T01:34:36;6.13;;;1.52;;
74872;SDS011;68776;44.762;37.698;2023-03-29T01:35:45;6.43;;;1.67;;
74872;SDS011;68776;44.762;37.698;2023-03-29T01:36:52;6.38;;;1.70;;
74872;SDS011;68776;44.762;37.698;2023-03-29T01:38:05;6.90;;;1.85;;
74872;SDS011;68776;44.762;37.698;2023-03-29T01:39:10;9.45;;;1.90;;
74872;SDS011;68776;44.762;37.698;2023-03-29T01:40:11;6.35;;;1.80;;
74872;SDS011;68776;44.762;37.698;2023-03-29T01:41:12;6.60;;;1.60;;
74872;SDS011;68776;44.762;37.698;2023-03-29T01:47:40;5.13;;;1.20;;
74872;SDS011;68776;44.762;37.698;2023-03-29T01:49:03;5.80;;;1.30;;
74872;SDS011;68776;44.762;37.698;2023-03-29T01:50:15;8.43;;;1.50;;
74872;SDS011;68776;44.762;37.698;2023-03-29T01:51:36;4.63;;;1.20;;
74872;SDS011;68776;44.762;37.698;2023-03-29T01:52:54;5.10;;;1.57;;
74872;SDS011;68776;44.762;37.698;2023-03-29T01:55:09;5.45;;;1.42;;
74872;SDS011;68776;44.762;37.698;2023-03-29T01:56:16;5.90;;;1.40;;
74872;SDS011;68776;44.762;37.698;2023-03-29T01:57:23;7.10;;;1.38;;
74872;SDS011;68776;44.762;37.698;2023-03-29T01:58:27;6.85;;;1.70;;
74872;SDS011;68776;44.762;37.698;2023-03-29T01:59:33;6.30;;;1.63;;
74872;SDS011;68776;44.762;37.698;2023-03-29T02:00:38;8.27;;;1.70;;
74872;SDS011;68776;44.762;37.698;2023-03-29T02:01:41;7.20;;;1.70;;
74872;SDS011;68776;44.762;37.698;2023-03-29T02:02:49;5.63;;;1.40;;
74872;SDS011;68776;44.762;37.698;2023-03-29T02:03:54;5.65;;;1.50;;
74872;SDS011;68776;44.762;37.698;2023-03-29T02:04:59;6.05;;;1.45;;
74872;SDS011;68776;44.762;37.698;2023-03-29T02:06:00;7.47;;;1.80;;
74872;SDS011;68776;44.762;37.698;2023-03-29T02:07:05;7.30;;;1.70;;
74872;SDS011;68776;44.762;37.698;2023-03-29T02:08:10;5.82;;;1.60;;
74872;SDS011;68776;44.762;37.698;2023-03-29T02:09:15;5.40;;;1.47;;
74872;SDS011;68776;44.762;37.698;2023-03-29T02:10:17;5.97;;;1.60;;
74872;SDS011;68776;44.762;37.698;2023-03-29T02:11:19;6.10;;;1.50;;
74872;SDS011;68776;44.762;37.698;2023-03-29T02:12:21;7.88;;;1.98;;
74872;SDS011;68776;44.762;37.698;2023-03-29T02:13:22;5.63;;;1.73;;
74872;SDS011;68776;44.762;37.698;2023-03-29T02:14:23;6.03;;;1.63;;
74872;SDS011;68776;44.762;37.698;2023-03-29T02:15:25;6.53;;;1.90;;
74872;SDS011;68776;44.762;37.698;2023-03-29T02:16:26;6.22;;;1.88;;
74872;SDS011;68776;44.762;37.698;2023-03-29T02:17:27;5.73;;;1.70;;
74872;SDS011;68776;44.762;37.698;2023-03-29T02:18:30;5.50;;;1.52;;
74872;SDS011;68776;44.762;37.698;2023-03-29T02:19:31;7.50;;;1.50;;
74872;SDS011;68776;44.762;37.698;2023-03-29T02:20:35;6.60;;;1.80;;
74872;SDS011;68776;44.762;37.698;2023-03-29T02:21:46;6.75;;;1.90;;
74872;SDS011;68776;44.762;37.698;2023-03-29T02:23:06;6.37;;;1.80;;
74872;SDS011;68776;44.762;37.698;2023-03-29T02:24:09;8.90;;;1.80;;
74872;SDS011;68776;44.762;37.698;2023-03-29T02:25:13;6.95;;;2.03;;
74872;SDS011;68776;44.762;37.698;2023-03-29T02:26:15;5.78;;;1.77;;
74872;SDS011;68776;44.762;37.698;2023-03-29T02:27:17;5.22;;;1.70;;
74872;SDS011;68776;44.762;37.698;2023-03-29T02:28:18;6.17;;;1.63;;
74872;SDS011;68776;44.762;37.698;2023-03-29T02:29:25;5.55;;;1.80;;
74872;SDS011;68776;44.762;37.698;2023-03-29T02:30:29;5.10;;;1.40;;
74872;SDS011;68776;44.762;37.698;2023-03-29T02:31:50;6.82;;;1.90;;
74872;SDS011;68776;44.762;37.698;2023-03-29T02:32:57;6.93;;;2.10;;
74872;SDS011;68776;44.762;37.698;2023-03-29T02:35:29;6.28;;;2.05;;
74872;SDS011;68776;44.762;37.698;2023-03-29T02:36:35;5.40;;;1.42;;
74872;SDS011;68776;44.762;37.698;2023-03-29T02:37:40;6.40;;;1.80;;
74872;SDS011;68776;44.762;37.698;2023-03-29T02:38:46;5.65;;;1.30;;
74872;SDS011;68776;44.762;37.698;2023-03-29T02:39:47;5.55;;;1.63;;
74872;SDS011;68776;44.762;37.698;2023-03-29T02:40:50;5.20;;;1.50;;
74872;SDS011;68776;44.762;37.698;2023-03-29T02:41:52;4.90;;;1.30;;
74872;SDS011;68776;44.762;37.698;2023-03-29T02:42:54;6.30;;;1.70;;
74872;SDS011;68776;44.762;37.698;2023-03-29T02:43:57;7.22;;;1.75;;
74872;SDS011;68776;44.762;37.698;2023-03-29T02:45:00;7.05;;;1.70;;
74872;SDS011;68776;44.762;37.698;2023-03-29T02:46:04;7.72;;;2.10;;
74872;SDS011;68776;44.762;37.698;2023-03-29T02:47:06;6.40;;;1.70;;
74872;SDS011;68776;44.762;37.698;2023-03-29T02:48:16;6.10;;;1.52;;
74872;SDS011;68776;44.762;37.698;2023-03-29T02:49:20;5.50;;;1.67;;
74872;SDS011;68776;44.762;37.698;2023-03-29T02:50:22;6.10;;;1.60;;
74872;SDS011;68776;44.762;37.698;2023-03-29T02:51:28;6.10;;;1.50;;
74872;SDS011;68776;44.762;37.698;2023-03-29T02:52:35;5.10;;;1.55;;
74872;SDS011;68776;44.762;37.698;2023-03-29T02:53:41;5.53;;;1.63;;
74872;SDS011;68776;44.762;37.698;2023-03-29T02:54:45;5.95;;;1.60;;
74872;SDS011;68776;44.762;37.698;2023-03-29T02:55:49;5.60;;;1.50;;
74872;SDS011;68776;44.762;37.698;2023-03-29T02:56:55;7.45;;;1.67;;
74872;SDS011;68776;44.762;37.698;2023-03-29T02:57:59;5.68;;;1.60;;
74872;SDS011;68776;44.762;37.698;2023-03-29T02:59:08;6.95;;;1.67;;
74872;SDS011;68776;44.762;37.698;2023-03-29T03:00:09;5.97;;;1.80;;
74872;SDS011;68776;44.762;37.698;2023-03-29T03:01:11;5.95;;;1.85;;
74872;SDS011;68776;44.762;37.698;2023-03-29T03:02:14;5.00;;;1.50;;
74872;SDS011;68776;44.762;37.698;2023-03-29T03:03:16;5.10;;;1.45;;
74872;SDS011;68776;44.762;37.698;2023-03-29T03:04:21;4.93;;;1.40;;
74872;SDS011;68776;44.762;37.698;2023-03-29T03:05:22;5.03;;;1.40;;
74872;SDS011;68776;44.762;37.698;2023-03-29T03:06:23;4.97;;;1.50;;
74872;SDS011;68776;44.762;37.698;2023-03-29T03:07:24;6.15;;;1.45;;
74872;SDS011;68776;44.762;37.698;2023-03-29T03:08:25;5.50;;;1.50;;
74872;SDS011;68776;44.762;37.698;2023-03-29T03:09:26;5.50;;;1.60;;
74872;SDS011;68776;44.762;37.698;2023-03-29T03:10:28;6.45;;;1.75;;
74872;SDS011;68776;44.762;37.698;2023-03-29T03:11:31;5.22;;;1.38;;
74872;SDS011;68776;44.762;37.698;2023-03-29T03:12:33;4.70;;;1.40;;
74872;SDS011;68776;44.762;37.698;2023-03-29T03:13:34;6.57;;;1.90;;
74872;SDS011;68776;44.762;37.698;2023-03-29T03:14:35;6.28;;;1.92;;
74872;SDS011;68776;44.762;37.698;2023-03-29T03:15:36;6.60;;;1.77;;
74872;SDS011;68776;44.762;37.698;2023-03-29T03:16:41;6.70;;;1.90;;
74872;SDS011;68776;44.762;37.698;2023-03-29T03:17:42;6.00;;;1.70;;
74872;SDS011;68776;44.762;37.698;2023-03-29T03:18:43;5.85;;;1.83;;
74872;SDS011;68776;44.762;37.698;2023-03-29T03:19:45;8.20;;;1.90;;
74872;SDS011;68776;44.762;37.698;2023-03-29T03:20:58;6.60;;;1.70;;
74872;SDS011;68776;44.762;37.698;2023-03-29T03:22:01;5.30;;;1.73;;
74872;SDS011;68776;44.762;37.698;2023-03-29T03:23:02;5.70;;;1.85;;
74872;SDS011;68776;44.762;37.698;2023-03-29T03:24:03;6.15;;;1.85;;
74872;SDS011;68776;44.762;37.698;2023-03-29T03:25:05;6.20;;;1.90;;
74872;SDS011;68776;44.762;37.698;2023-03-29T03:26:10;5.13;;;1.70;;
74872;SDS011;68776;44.762;37.698;2023-03-29T03:27:12;6.65;;;1.90;;
74872;SDS011;68776;44.762;37.698;2023-03-29T03:28:13;6.57;;;2.43;;
74872;SDS011;68776;44.762;37.698;2023-03-29T03:29:14;5.57;;;1.80;;
74872;SDS011;68776;44.762;37.698;2023-03-29T03:30:34;6.30;;;1.80;;
74872;SDS011;68776;44.762;37.698;2023-03-29T03:31:50;8.05;;;1.88;;
74872;SDS011;68776;44.762;37.698;2023-03-29T03:33:13;5.88;;;1.73;;
74872;SDS011;68776;44.762;37.698;2023-03-29T03:34:32;6.80;;;2.00;;
74872;SDS011;68776;44.762;37.698;2023-03-29T03:35:35;6.20;;;2.38;;
74872;SDS011;68776;44.762;37.698;2023-03-29T03:36:37;6.90;;;1.92;;
74872;SDS011;68776;44.762;37.698;2023-03-29T03:37:39;6.25;;;1.85;;
74872;SDS011;68776;44.762;37.698;2023-03-29T03:38:42;7.87;;;2.33;;
74872;SDS011;68776;44.762;37.698;2023-03-29T03:39:44;7.30;;;2.33;;
74872;SDS011;68776;44.762;37.698;2023-03-29T03:40:51;6.00;;;1.92;;
74872;SDS011;68776;44.762;37.698;2023-03-29T03:41:53;5.88;;;1.92;;
74872;SDS011;68776;44.762;37.698;2023-03-29T03:42:54;6.57;;;1.85;;
74872;SDS011;68776;44.762;37.698;2023-03-29T03:43:55;7.32;;;2.00;;
74872;SDS011;68776;44.762;37.698;2023-03-29T03:44:56;7.03;;;2.40;;
74872;SDS011;68776;44.762;37.698;2023-03-29T03:46:23;6.97;;;1.83;;
74872;SDS011;68776;44.762;37.698;2023-03-29T03:47:24;6.68;;;1.98;;
74872;SDS011;68776;44.762;37.698;2023-03-29T03:48:27;7.15;;;2.10;;
74872;SDS011;68776;44.762;37.698;2023-03-29T03:49:48;5.70;;;1.45;;
74872;SDS011;68776;44.762;37.698;2023-03-29T03:50:53;4.60;;;1.33;;
74872;SDS011;68776;44.762;37.698;2023-03-29T03:51:55;5.55;;;1.42;;
74872;SDS011;68776;44.762;37.698;2023-03-29T03:52:56;7.35;;;1.70;;
74872;SDS011;68776;44.762;37.698;2023-03-29T03:53:57;6.25;;;1.60;;
74872;SDS011;68776;44.762;37.698;2023-03-29T03:55:07;6.32;;;2.08;;
74872;SDS011;68776;44.762;37.698;2023-03-29T03:56:24;5.60;;;1.40;;
74872;SDS011;68776;44.762;37.698;2023-03-29T03:57:38;6.90;;;1.83;;
74872;SDS011;68776;44.762;37.698;2023-03-29T03:58:42;6.07;;;1.80;;
74872;SDS011;68776;44.762;37.698;2023-03-29T03:59:43;5.65;;;1.80;;
74872;SDS011;68776;44.762;37.698;2023-03-29T04:00:49;5.20;;;1.60;;
74872;SDS011;68776;44.762;37.698;2023-03-29T04:02:09;6.05;;;1.30;;
74872;SDS011;68776;44.762;37.698;2023-03-29T04:03:11;6.03;;;1.80;;
74872;SDS011;68776;44.762;37.698;2023-03-29T04:04:14;5.90;;;1.80;;
74872;SDS011;68776;44.762;37.698;2023-03-29T04:05:29;5.05;;;1.45;;
74872;SDS011;68776;44.762;37.698;2023-03-29T04:06:30;5.90;;;1.30;;
74872;SDS011;68776;44.762;37.698;2023-03-29T04:08:03;5.10;;;1.60;;
74872;SDS011;68776;44.762;37.698;2023-03-29T04:09:24;5.50;;;1.63;;
74872;SDS011;68776;44.762;37.698;2023-03-29T04:10:39;5.55;;;1.75;;
74872;SDS011;68776;44.762;37.698;2023-03-29T04:11:56;7.63;;;1.70;;
74872;SDS011;68776;44.762;37.698;2023-03-29T04:12:58;5.93;;;1.73;;
74872;SDS011;68776;44.762;37.698;2023-03-29T04:14:02;6.45;;;1.40;;
74872;SDS011;68776;44.762;37.698;2023-03-29T04:15:24;5.20;;;1.42;;
74872;SDS011;68776;44.762;37.698;2023-03-29T04:16:33;7.33;;;1.70;;
74872;SDS011;68776;44.762;37.698;2023-03-29T04:17:49;5.40;;;1.67;;
74872;SDS011;68776;44.762;37.698;2023-03-29T04:18:50;6.03;;;1.77;;
74872;SDS011;68776;44.762;37.698;2023-03-29T04:19:51;5.97;;;2.10;;
74872;SDS011;68776;44.762;37.698;2023-03-29T04:20:52;6.78;;;1.80;;
74872;SDS011;68776;44.762;37.698;2023-03-29T04:21:56;7.35;;;2.10;;
74872;SDS011;68776;44.762;37.698;2023-03-29T04:22:57;5.70;;;1.60;;
74872;SDS011;68776;44.762;37.698;2023-03-29T04:23:58;7.68;;;2.08;;
74872;SDS011;68776;44.762;37.698;2023-03-29T04:24:59;5.95;;;2.15;;
74872;SDS011;68776;44.762;37.698;2023-03-29T04:26:03;6.65;;;2.30;;
74872;SDS011;68776;44.762;37.698;2023-03-29T04:27:18;7.68;;;2.28;;
74872;SDS011;68776;44.762;37.698;2023-03-29T04:28:19;6.72;;;2.13;;
74872;SDS011;68776;44.762;37.698;2023-03-29T04:29:32;5.78;;;2.00;;
74872;SDS011;68776;44.762;37.698;2023-03-29T04:30:45;7.28;;;2.13;;
74872;SDS011;68776;44.762;37.698;2023-03-29T04:31:55;7.00;;;2.30;;
74872;SDS011;68776;44.762;37.698;2023-03-29T04:33:19;7.93;;;3.00;;
74872;SDS011;68776;44.762;37.698;2023-03-29T04:34:31;7.22;;;2.53;;
74872;SDS011;68776;44.762;37.698;2023-03-29T04:35:32;7.30;;;3.25;;
74872;SDS011;68776;44.762;37.698;2023-03-29T04:36:33;7.47;;;3.10;;
74872;SDS011;68776;44.762;37.698;2023-03-29T04:37:35;8.23;;;3.13;;
74872;SDS011;68776;44.762;37.698;2023-03-29T04:38:40;6.60;;;2.60;;
74872;SDS011;68776;44.762;37.698;2023-03-29T04:39:41;6.80;;;2.78;;
74872;SDS011;68776;44.762;37.698;2023-03-29T04:40:44;6.70;;;3.13;;
74872;SDS011;68776;44.762;37.698;2023-03-29T04:41:52;7.47;;;3.40;;
74872;SDS011;68776;44.762;37.698;2023-03-29T04:42:56;7.77;;;3.33;;
74872;SDS011;68776;44.762;37.698;2023-03-29T04:43:59;6.70;;;3.45;;
74872;SDS011;68776;44.762;37.698;2023-03-29T04:45:04;7.18;;;3.45;;
74872;SDS011;68776;44.762;37.698;2023-03-29T04:46:24;6.00;;;2.85;;
74872;SDS011;68776;44.762;37.698;2023-03-29T04:47:37;7.10;;;3.00;;
74872;SDS011;68776;44.762;37.698;2023-03-29T04:48:45;6.18;;;2.58;;
74872;SDS011;68776;44.762;37.698;2023-03-29T04:49:46;6.03;;;2.78;;
74872;SDS011;68776;44.762;37.698;2023-03-29T04:50:55;6.85;;;3.00;;
74872;SDS011;68776;44.762;37.698;2023-03-29T04:51:56;7.10;;;3.20;;
74872;SDS011;68776;44.762;37.698;2023-03-29T04:53:01;6.43;;;2.97;;
74872;SDS011;68776;44.762;37.698;2023-03-29T04:54:03;6.18;;;3.58;;
74872;SDS011;68776;44.762;37.698;2023-03-29T04:55:09;6.60;;;3.90;;
74872;SDS011;68776;44.762;37.698;2023-03-29T04:56:24;7.43;;;3.78;;
74872;SDS011;68776;44.762;37.698;2023-03-29T04:57:52;6.95;;;4.30;;
74872;SDS011;68776;44.762;37.698;2023-03-29T04:59:02;8.43;;;4.97;;
74872;SDS011;68776;44.762;37.698;2023-03-29T05:00:03;9.38;;;5.25;;
74872;SDS011;68776;44.762;37.698;2023-03-29T05:01:36;6.47;;;4.03;;
74872;SDS011;68776;44.762;37.698;2023-03-29T05:02:38;8.07;;;4.43;;
74872;SDS011;68776;44.762;37.698;2023-03-29T05:03:38;9.15;;;4.45;;
74872;SDS011;68776;44.762;37.698;2023-03-29T05:05:02;7.57;;;4.97;;
74872;SDS011;68776;44.762;37.698;2023-03-29T05:06:04;8.68;;;5.85;;
74872;SDS011;68776;44.762;37.698;2023-03-29T05:07:09;10.90;;;8.17;;
74872;SDS011;68776;44.762;37.698;2023-03-29T05:08:12;12.80;;;9.00;;
74872;SDS011;68776;44.762;37.698;2023-03-29T05:09:32;10.05;;;7.35;;
74872;SDS011;68776;44.762;37.698;2023-03-29T05:10:35;11.32;;;8.10;;
74872;SDS011;68776;44.762;37.698;2023-03-29T05:11:36;9.25;;;7.03;;
74872;SDS011;68776;44.762;37.698;2023-03-29T05:12:37;10.85;;;5.80;;
74872;SDS011;68776;44.762;37.698;2023-03-29T05:13:38;11.00;;;6.82;;
74872;SDS011;68776;44.762;37.698;2023-03-29T05:14:40;9.52;;;6.57;;
74872;SDS011;68776;44.762;37.698;2023-03-29T05:15:41;10.73;;;5.50;;
74872;SDS011;68776;44.762;37.698;2023-03-29T05:16:43;10.18;;;5.85;;
74872;SDS011;68776;44.762;37.698;2023-03-29T05:17:44;10.55;;;5.95;;
74872;SDS011;68776;44.762;37.698;2023-03-29T05:18:46;11.52;;;5.57;;
74872;SDS011;68776;44.762;37.698;2023-03-29T05:19:47;13.07;;;6.93;;
74872;SDS011;68776;44.762;37.698;2023-03-29T05:20:50;8.65;;;5.32;;
74872;SDS011;68776;44.762;37.698;2023-03-29T05:21:52;9.85;;;6.13;;
74872;SDS011;68776;44.762;37.698;2023-03-29T05:22:56;9.57;;;5.50;;
74872;SDS011;68776;44.762;37.698;2023-03-29T05:24:20;10.73;;;6.35;;
74872;SDS011;68776;44.762;37.698;2023-03-29T05:25:34;11.18;;;6.47;;
74872;SDS011;68776;44.762;37.698;2023-03-29T05:26:35;10.35;;;5.85;;
74872;SDS011;68776;44.762;37.698;2023-03-29T05:27:37;9.93;;;5.65;;
74872;SDS011;68776;44.762;37.698;2023-03-29T05:28:42;10.90;;;6.85;;
74872;SDS011;68776;44.762;37.698;2023-03-29T05:29:43;8.48;;;6.00;;
74872;SDS011;68776;44.762;37.698;2023-03-29T05:31:08;11.00;;;5.65;;
74872;SDS011;68776;44.762;37.698;2023-03-29T05:32:12;9.02;;;5.30;;
74872;SDS011;68776;44.762;37.698;2023-03-29T05:33:14;10.20;;;6.47;;
74872;SDS011;68776;44.762;37.698;2023-03-29T05:34:15;11.05;;;6.93;;
74872;SDS011;68776;44.762;37.698;2023-03-29T05:35:20;9.07;;;6.00;;
74872;SDS011;68776;44.762;37.698;2023-03-29T05:36:23;11.90;;;6.85;;
74872;SDS011;68776;44.762;37.698;2023-03-29T05:37:25;9.02;;;6.28;;
74872;SDS011;68776;44.762;37.698;2023-03-29T05:38:30;11.02;;;7.00;;
74872;SDS011;68776;44.762;37.698;2023-03-29T05:39:34;8.65;;;6.35;;
74872;SDS011;68776;44.762;37.698;2023-03-29T05:40:37;9.27;;;6.85;;
74872;SDS011;68776;44.762;37.698;2023-03-29T05:41:58;10.43;;;7.93;;
74872;SDS011;68776;44.762;37.698;2023-03-29T05:43:16;12.05;;;6.85;;
74872;SDS011;68776;44.762;37.698;2023-03-29T05:44:17;9.98;;;5.78;;
74872;SDS011;68776;44.762;37.698;2023-03-29T05:45:22;10.43;;;6.57;;
74872;SDS011;68776;44.762;37.698;2023-03-29T05:46:23;10.30;;;6.28;;
74872;SDS011;68776;44.762;37.698;2023-03-29T05:47:27;9.60;;;5.32;;
74872;SDS011;68776;44.762;37.698;2023-03-29T05:48:28;9.30;;;5.47;;
74872;SDS011;68776;44.762;37.698;2023-03-29T05:49:29;9.43;;;5.60;;
74872;SDS011;68776;44.762;37.698;2023-03-29T05:50:39;10.15;;;6.38;;
74872;SDS011;68776;44.762;37.698;2023-03-29T05:51:40;10.15;;;5.95;;
74872;SDS011;68776;44.762;37.698;2023-03-29T05:52:43;9.68;;;5.53;;
74872;SDS011;68776;44.762;37.698;2023-03-29T05:53:45;8.70;;;4.97;;
74872;SDS011;68776;44.762;37.698;2023-03-29T05:54:46;7.60;;;4.63;;
74872;SDS011;68776;44.762;37.698;2023-03-29T05:55:49;9.45;;;5.18;;
74872;SDS011;68776;44.762;37.698;2023-03-29T05:56:52;10.18;;;5.85;;
74872;SDS011;68776;44.762;37.698;2023-03-29T05:57:53;11.10;;;6.73;;
74872;SDS011;68776;44.762;37.698;2023-03-29T05:58:58;10.63;;;6.43;;
74872;SDS011;68776;44.762;37.698;2023-03-29T06:00:02;9.65;;;6.60;;
74872;SDS011;68776;44.762;37.698;2023-03-29T06:01:14;10.68;;;6.10;;
74872;SDS011;68776;44.762;37.698;2023-03-29T06:02:51;11.73;;;6.95;;
74872;SDS011;68776;44.762;37.698;2023-03-29T06:03:54;10.48;;;7.63;;
74872;SDS011;68776;44.762;37.698;2023-03-29T06:05:01;9.88;;;6.70;;
74872;SDS011;68776;44.762;37.698;2023-03-29T06:06:22;11.52;;;6.82;;
74872;SDS011;68776;44.762;37.698;2023-03-29T06:07:23;9.68;;;5.72;;
74872;SDS011;68776;44.762;37.698;2023-03-29T06:09:03;11.07;;;6.93;;
74872;SDS011;68776;44.762;37.698;2023-03-29T06:10:09;12.13;;;6.80;;
74872;SDS011;68776;44.762;37.698;2023-03-29T06:11:13;11.70;;;7.13;;
74872;SDS011;68776;44.762;37.698;2023-03-29T06:12:34;9.98;;;6.10;;
74872;SDS011;68776;44.762;37.698;2023-03-29T06:13:36;10.67;;;7.03;;
74872;SDS011;68776;44.762;37.698;2023-03-29T06:14:40;9.60;;;6.65;;
74872;SDS011;68776;44.762;37.698;2023-03-29T06:16:07;11.77;;;7.93;;
74872;SDS011;68776;44.762;37.698;2023-03-29T06:17:09;13.80;;;7.47;;
74872;SDS011;68776;44.762;37.698;2023-03-29T06:18:11;14.77;;;9.15;;
74872;SDS011;68776;44.762;37.698;2023-03-29T06:19:12;13.18;;;7.90;;
74872;SDS011;68776;44.762;37.698;2023-03-29T06:20:14;11.53;;;8.07;;
74872;SDS011;68776;44.762;37.698;2023-03-29T06:21:20;11.93;;;7.95;;
74872;SDS011;68776;44.762;37.698;2023-03-29T06:22:21;10.90;;;7.38;;
74872;SDS011;68776;44.762;37.698;2023-03-29T06:23:23;10.05;;;6.63;;
74872;SDS011;68776;44.762;37.698;2023-03-29T06:24:24;12.48;;;8.20;;
74872;SDS011;68776;44.762;37.698;2023-03-29T06:25:32;11.80;;;8.55;;
74872;SDS011;68776;44.762;37.698;2023-03-29T06:26:33;13.57;;;8.07;;
74872;SDS011;68776;44.762;37.698;2023-03-29T06:27:34;12.75;;;8.23;;
74872;SDS011;68776;44.762;37.698;2023-03-29T06:28:36;13.80;;;9.40;;
74872;SDS011;68776;44.762;37.698;2023-03-29T06:29:37;12.98;;;9.25;;
74872;SDS011;68776;44.762;37.698;2023-03-29T06:30:39;13.02;;;8.30;;
74872;SDS011;68776;44.762;37.698;2023-03-29T06:31:41;12.00;;;9.05;;
74872;SDS011;68776;44.762;37.698;2023-03-29T06:32:50;13.45;;;8.82;;
74872;SDS011;68776;44.762;37.698;2023-03-29T06:34:20;11.13;;;7.93;;
74872;SDS011;68776;44.762;37.698;2023-03-29T06:35:48;11.95;;;9.60;;
74872;SDS011;68776;44.762;37.698;2023-03-29T06:36:53;13.05;;;9.52;;
74872;SDS011;68776;44.762;37.698;2023-03-29T06:37:55;12.35;;;8.88;;
74872;SDS011;68776;44.762;37.698;2023-03-29T06:39:04;13.85;;;9.75;;
74872;SDS011;68776;44.762;37.698;2023-03-29T06:40:28;10.50;;;8.95;;
74872;SDS011;68776;44.762;37.698;2023-03-29T06:41:30;12.65;;;9.82;;
74872;SDS011;68776;44.762;37.698;2023-03-29T06:42:51;13.60;;;9.93;;
74872;SDS011;68776;44.762;37.698;2023-03-29T06:44:00;13.68;;;9.20;;
74872;SDS011;68776;44.762;37.698;2023-03-29T06:45:08;13.93;;;10.50;;
74872;SDS011;68776;44.762;37.698;2023-03-29T06:46:11;12.40;;;10.20;;
74872;SDS011;68776;44.762;37.698;2023-03-29T06:47:26;14.23;;;10.97;;